Time;durP1;ratioP1;P1;durP2;ratioP2;P2;SDS_P1;SDS_P2;PMS_P1;PMS_P2;Temp;Humidity;BMP_temperature;BMP_pressure;BME280_temperature;BME280_humidity;BME280_pressure;Samples;Min_cycle;Max_cycle;Signal;HPM_P1;HPM_P2
2022/12/05 00:02:21;;;;;;;70.10;33.40;;;;;;;1.23;96.70;100574.80;2160968;81;20960;-78
2022/12/05 00:05:23;;;;;;;78.42;37.42;;;;;;;1.24;96.77;100577.80;2160818;81;20983;-77
2022/12/05 00:08:24;;;;;;;79.55;37.70;;;;;;;1.25;96.90;100579.47;2143827;81;21144;-78
2022/12/05 00:11:29;;;;;;;71.55;31.00;;;;;;;1.22;96.85;100571.81;2140665;81;20968;-77
2022/12/05 00:14:30;;;;;;;82.90;37.78;;;;;;;1.21;96.85;100570.16;2151136;82;20962;-77
2022/12/05 00:17:31;;;;;;;82.17;37.67;;;;;;;1.18;96.74;100573.41;2153357;81;21105;-77
2022/12/05 00:20:33;;;;;;;79.22;37.17;;;;;;;1.14;96.74;100571.45;2147992;82;21052;-77
2022/12/05 00:23:36;;;;;;;84.58;40.75;;;;;;;1.10;96.76;100571.28;2148732;81;21154;-77
2022/12/05 00:26:37;;;;;;;78.42;37.03;;;;;;;1.07;96.79;100567.53;2149865;81;21183;-77
2022/12/05 00:29:41;;;;;;;82.62;38.75;;;;;;;1.07;96.84;100557.07;2149937;81;20999;-77
2022/12/05 00:32:43;;;;;;;78.83;38.25;;;;;;;1.04;96.79;100547.67;2144225;81;20990;-77
2022/12/05 00:35:43;;;;;;;82.70;37.60;;;;;;;1.03;96.82;100546.45;2151318;81;21002;-77
2022/12/05 00:38:45;;;;;;;82.00;39.30;;;;;;;1.01;96.90;100552.23;2151894;81;21327;-77
2022/12/05 00:41:46;;;;;;;84.97;40.50;;;;;;;0.98;96.98;100561.57;2141826;81;22224;-77
2022/12/05 00:44:49;;;;;;;79.70;37.80;;;;;;;0.96;96.94;100549.05;2153282;81;21482;-77
2022/12/05 00:47:50;;;;;;;76.50;37.55;;;;;;;0.94;96.97;100566.16;2143539;81;21029;-77
2022/12/05 00:51:09;;;;;;;69.17;35.20;;;;;;;0.92;97.09;100560.64;2150395;82;20982;-78
2022/12/05 00:54:14;;;;;;;81.15;38.53;;;;;;;0.91;97.21;100564.20;2149593;81;21022;-77
2022/12/05 00:57:15;;;;;;;79.17;37.67;;;;;;;0.89;97.19;100546.83;2147843;81;21622;-77
2022/12/05 01:00:17;;;;;;;81.10;38.58;;;;;;;0.89;97.19;100559.89;2151666;81;21364;-77
2022/12/05 01:03:18;;;;;;;74.75;35.35;;;;;;;0.88;97.25;100546.47;2151375;81;21058;-77
2022/12/05 01:06:20;;;;;;;75.45;35.68;;;;;;;0.88;97.40;100549.08;2138508;81;21489;-77
2022/12/05 01:09:22;;;;;;;73.05;33.35;;;;;;;0.84;97.35;100546.27;2105008;81;21572;-77
2022/12/05 01:12:23;;;;;;;84.20;38.10;;;;;;;0.88;97.33;100561.31;2107941;81;21033;-77
2022/12/05 01:15:24;;;;;;;73.10;32.58;;;;;;;0.88;97.38;100560.00;2116688;81;21042;-77
2022/12/05 01:18:27;;;;;;;81.10;39.18;;;;;;;0.88;97.38;100570.45;2096565;81;20946;-78
2022/12/05 01:21:30;;;;;;;78.75;34.92;;;;;;;0.87;97.36;100555.25;2109442;81;22416;-77
2022/12/05 01:24:31;;;;;;;81.90;40.28;;;;;;;0.88;97.39;100554.30;2126284;81;21517;-76
2022/12/05 01:27:32;;;;;;;82.88;40.17;;;;;;;0.88;97.30;100558.22;2109731;81;21178;-77
2022/12/05 01:30:39;;;;;;;86.32;40.38;;;;;;;0.88;97.30;100559.53;2109245;81;21080;-77
2022/12/05 01:33:40;;;;;;;75.47;37.85;;;;;;;0.88;97.26;100554.30;2115850;81;20986;-78
2022/12/05 01:36:41;;;;;;;78.37;35.75;;;;;;;0.88;97.24;100544.33;2106111;81;21054;-77
2022/12/05 01:39:43;;;;;;;76.30;38.98;;;;;;;0.88;97.25;100558.70;2114039;81;21520;-77
2022/12/05 01:42:44;;;;;;;73.90;32.45;;;;;;;0.88;97.20;100562.14;2126176;81;21024;-77
2022/12/05 01:45:45;;;;;;;79.47;37.35;;;;;;;0.89;97.27;100552.05;2119206;81;21654;-77
2022/12/05 01:48:47;;;;;;;77.17;37.38;;;;;;;0.90;97.33;100539.83;2118459;81;21002;-77
2022/12/05 01:51:54;;;;;;;77.67;37.67;;;;;;;0.89;97.31;100543.38;2110073;81;20982;-77
2022/12/05 01:55:00;;;;;;;80.40;40.67;;;;;;;0.89;97.22;100548.13;2127041;81;21398;-77
2022/12/05 01:58:04;;;;;;;70.50;33.40;;;;;;;0.89;97.20;100549.91;2119088;81;21584;-78
2022/12/05 02:01:07;;;;;;;76.12;36.65;;;;;;;0.89;97.23;100545.52;2116327;81;21045;-77
2022/12/05 02:04:11;;;;;;;79.27;39.83;;;;;;;0.89;97.24;100550.75;2096138;81;21072;-77
2022/12/05 02:07:12;;;;;;;82.08;38.88;;;;;;;0.89;97.25;100554.66;2120413;81;21098;-77
2022/12/05 02:10:14;;;;;;;79.67;34.53;;;;;;;0.89;97.21;100559.89;2135191;83;21069;-77
2022/12/05 02:13:56;;;;;;;73.83;34.95;;;;;;;0.89;97.33;100555.97;2131846;82;21029;-77
2022/12/05 02:17:17;;;;;;;79.17;37.85;;;;;;;0.88;97.32;100552.16;2136203;82;21092;-78
2022/12/05 02:20:39;;;;;;;78.90;36.75;;;;;;;0.87;97.31;100547.41;2132056;83;20971;-79
2022/12/05 02:24:04;;;;;;;77.30;38.42;;;;;;;0.87;97.33;100541.32;2131698;83;21607;-77
2022/12/05 02:27:31;;;;;;;70.97;34.75;;;;;;;0.83;97.30;100530.23;2115202;83;21113;-78
2022/12/05 02:30:59;;;;;;;81.72;37.28;;;;;;;0.83;97.31;100541.98;2137964;82;21053;-78
2022/12/05 02:34:27;;;;;;;71.35;32.95;;;;;;;0.83;97.29;100536.76;2134852;82;21074;-78
2022/12/05 02:37:55;;;;;;;68.85;33.42;;;;;;;0.83;97.42;100528.09;2133662;83;20999;-77
2022/12/05 02:41:15;;;;;;;72.95;34.88;;;;;;;0.81;97.39;100528.17;2138160;83;21061;-79
2022/12/05 02:44:27;;;;;;;71.62;32.50;;;;;;;0.77;97.41;100522.77;2131897;83;21100;-78
2022/12/05 02:47:32;;;;;;;73.10;35.30;;;;;;;0.78;97.53;100521.83;2132444;83;21488;-78
2022/12/05 02:50:38;;;;;;;65.05;31.00;;;;;;;0.78;97.51;100517.91;2135187;82;21567;-78
2022/12/05 02:53:41;;;;;;;62.78;30.37;;;;;;;0.79;97.53;100514.83;2132172;83;21034;-78
2022/12/05 02:56:45;;;;;;;60.98;28.25;;;;;;;0.77;97.52;100518.86;2131954;83;21060;-78
2022/12/05 02:59:50;;;;;;;70.83;32.78;;;;;;;0.78;97.51;100509.23;2131891;82;21077;-78
2022/12/05 03:02:55;;;;;;;62.08;30.48;;;;;;;0.76;97.52;100515.88;2131324;83;21070;-77
2022/12/05 03:06:13;;;;;;;60.55;27.02;;;;;;;0.74;97.53;100517.73;2138237;81;21059;-78
2022/12/05 03:09:36;;;;;;;66.57;31.62;;;;;;;0.74;97.61;100513.82;2146946;81;21073;-77
2022/12/05 03:12:46;;;;;;;62.55;31.55;;;;;;;0.74;97.58;100529.49;2150169;82;20988;-77
2022/12/05 03:15:52;;;;;;;66.05;32.28;;;;;;;0.74;97.55;100520.83;2149551;81;21003;-78
2022/12/05 03:19:01;;;;;;;68.90;32.20;;;;;;;0.75;97.50;100523.80;2147160;81;22277;-78
2022/12/05 03:22:06;;;;;;;66.53;32.15;;;;;;;0.75;97.50;100528.55;2143927;82;21010;-78
2022/12/05 03:25:09;;;;;;;64.92;31.62;;;;;;;0.76;97.52;100509.79;2149569;81;21043;-77
2022/12/05 03:28:28;;;;;;;68.20;33.67;;;;;;;0.76;97.49;100511.09;2149686;81;21141;-77
2022/12/05 03:31:57;;;;;;;65.70;31.85;;;;;;;0.76;97.49;100512.41;2152111;81;21585;-78
2022/12/05 03:35:21;;;;;;;65.42;30.05;;;;;;;0.74;97.55;100513.82;2153876;82;21078;-78
2022/12/05 03:38:33;;;;;;;66.15;30.77;;;;;;;0.73;97.55;100504.28;2147866;81;20990;-78
2022/12/05 03:41:46;;;;;;;63.45;31.55;;;;;;;0.73;97.58;100512.13;2148810;81;21047;-78
2022/12/05 03:44:55;;;;;;;58.98;30.55;;;;;;;0.71;97.59;100512.70;2143554;81;21514;-78
2022/12/05 03:48:20;;;;;;;60.00;27.82;;;;;;;0.70;97.55;100501.86;2151509;81;21097;-78
2022/12/05 03:51:26;;;;;;;57.95;28.62;;;;;;;0.70;97.63;100504.47;2151304;81;21014;-76
2022/12/05 03:54:38;;;;;;;64.05;26.90;;;;;;;0.68;97.60;100498.53;2152252;81;21022;-76
2022/12/05 03:57:47;;;;;;;58.95;30.32;;;;;;;0.67;97.64;100484.61;2155172;81;21050;-76
2022/12/05 04:00:52;;;;;;;58.08;29.02;;;;;;;0.66;97.59;100492.55;2151354;81;21096;-77
2022/12/05 04:04:01;;;;;;;57.93;29.60;;;;;;;0.66;97.62;100497.77;2137607;81;21034;-77
2022/12/05 04:07:06;;;;;;;59.25;30.48;;;;;;;0.64;97.57;100487.41;2158657;81;20986;-77
2022/12/05 04:10:14;;;;;;;59.98;29.18;;;;;;;0.64;97.62;100501.77;2136615;81;21042;-77
2022/12/05 04:13:42;;;;;;;61.48;29.30;;;;;;;0.62;97.61;100493.66;2164979;81;21034;-77
2022/12/05 04:17:03;;;;;;;60.83;31.02;;;;;;;0.62;97.58;100501.49;2158087;81;21029;-77
2022/12/05 04:23:35;;;;;;;63.95;30.95;;;;;;;0.61;97.57;100499.35;2160438;81;21110;-77
2022/12/05 04:26:41;;;;;;;63.42;30.55;;;;;;;0.60;97.55;100492.46;2087127;84;21452;-77
2022/12/05 04:29:54;;;;;;;62.27;32.33;;;;;;;0.61;97.53;100478.93;2096537;83;21070;-77
2022/12/05 04:33:10;;;;;;;55.70;27.77;;;;;;;0.60;97.54;100461.13;2116544;83;21635;-77
2022/12/05 04:36:31;;;;;;;64.32;33.15;;;;;;;0.58;97.55;100473.90;2112153;84;21071;-77
2022/12/05 04:39:53;;;;;;;61.50;31.33;;;;;;;0.56;97.52;100477.06;2102500;83;21037;-77
2022/12/05 04:42:55;;;;;;;68.83;31.62;;;;;;;0.55;97.53;100488.45;2122478;83;21035;-78
2022/12/05 04:45:59;;;;;;;70.65;34.67;;;;;;;0.55;97.52;100482.76;2123374;83;21517;-77
2022/12/05 04:49:04;;;;;;;70.52;32.25;;;;;;;0.56;97.54;100467.92;2116997;83;21014;-77
2022/12/05 04:52:11;;;;;;;60.45;30.32;;;;;;;0.56;97.57;100478.37;2125182;83;21455;-77
2022/12/05 04:55:16;;;;;;;68.60;33.75;;;;;;;0.59;97.56;100479.48;2127033;83;21025;-77
2022/12/05 04:58:22;;;;;;;68.00;34.13;;;;;;;0.59;97.54;100474.26;2126638;83;21057;-77
2022/12/05 05:01:40;;;;;;;62.03;31.68;;;;;;;0.58;97.49;100478.65;2125302;83;21560;-77
2022/12/05 05:04:46;;;;;;;64.72;33.60;;;;;;;0.60;97.47;100473.34;2128942;83;21054;-77
2022/12/05 05:07:51;;;;;;;64.75;34.27;;;;;;;0.61;97.42;100485.46;2119545;83;21081;-77
2022/12/05 05:11:22;;;;;;;65.55;32.25;;;;;;;0.60;97.43;100465.04;2118424;83;20964;-77
2022/12/05 05:14:23;;;;;;;62.15;33.78;;;;;;;0.60;97.43;100466.82;2094760;83;20974;-77
2022/12/05 05:17:24;;;;;;;66.85;33.28;;;;;;;0.62;97.37;100471.02;2111644;83;21007;-77
2022/12/05 05:20:26;;;;;;;62.15;31.55;;;;;;;0.64;97.34;100476.12;2117708;83;21482;-76
2022/12/05 05:23:27;;;;;;;58.13;30.52;;;;;;;0.66;97.32;100478.19;2113811;83;21390;-77
2022/12/05 05:26:30;;;;;;;65.80;33.85;;;;;;;0.66;97.22;100485.55;2112847;83;21056;-77
2022/12/05 05:29:31;;;;;;;61.85;32.88;;;;;;;0.66;97.12;100485.55;2122051;83;21048;-73
2022/12/05 05:32:32;;;;;;;66.17;32.05;;;;;;;0.66;97.06;100484.25;2117233;83;21010;-75
2022/12/05 05:35:37;;;;;;;66.37;34.65;;;;;;;0.67;97.05;100491.13;2110998;83;21536;-73
2022/12/05 05:38:42;;;;;;;64.92;32.48;;;;;;;0.66;97.00;100483.41;2113519;83;21544;-78
2022/12/05 05:41:43;;;;;;;61.98;31.52;;;;;;;0.65;96.98;100493.50;2090045;84;21164;-78
2022/12/05 05:44:44;;;;;;;59.83;32.42;;;;;;;0.65;96.99;100501.33;2115639;83;21053;-81
2022/12/05 05:47:47;;;;;;;;;;;;;;;0.66;97.00;100495.16;2065608;84;22375;-79
2022/12/05 05:50:48;;;;;;;58.80;29.87;;;;;;;0.69;96.99;100500.20;2082019;84;20111;-80
2022/12/05 05:53:49;;;;;;;67.40;31.82;;;;;;;0.70;96.97;100494.50;2087975;85;21030;-83
2022/12/05 05:56:50;;;;;;;66.57;31.68;;;;;;;0.69;96.90;100491.05;2087719;84;21505;-80
2022/12/05 05:59:51;;;;;;;61.65;30.65;;;;;;;0.70;96.84;100484.05;2076356;84;21085;-80
2022/12/05 06:02:52;;;;;;;49.93;26.25;;;;;;;0.71;96.82;100490.50;2074047;84;21026;-80
2022/12/05 06:05:58;;;;;;;58.45;29.40;;;;;;;0.73;96.82;100495.61;2116940;83;21359;-80
2022/12/05 06:09:00;;;;;;;59.27;30.80;;;;;;;0.74;96.74;100499.92;2123060;82;21554;-79
2022/12/05 06:12:01;;;;;;;56.55;30.65;;;;;;;0.74;96.71;100499.92;2119209;83;21076;-80
2022/12/05 06:15:03;;;;;;;60.33;31.30;;;;;;;0.76;96.65;100508.48;2103616;84;20958;-80
2022/12/05 06:18:04;;;;;;;60.30;30.95;;;;;;;0.76;96.62;100511.09;2124293;83;21107;-79
2022/12/05 06:21:07;;;;;;;56.30;29.48;;;;;;;0.78;96.62;100511.84;2102596;84;21473;-80
2022/12/05 06:24:08;;;;;;;56.00;28.92;;;;;;;0.80;96.54;100514.74;2123229;83;21022;-79
2022/12/05 06:27:10;;;;;;;52.27;28.25;;;;;;;0.82;96.47;100507.66;2126445;83;21002;-81
2022/12/05 06:30:12;;;;;;;55.03;28.80;;;;;;;0.84;96.44;100514.08;2128537;82;21060;-83
2022/12/05 06:33:14;;;;;;;52.30;28.05;;;;;;;0.83;96.35;100508.02;2128925;83;20985;-80
2022/12/05 06:36:19;;;;;;;58.35;29.77;;;;;;;0.87;96.33;100499.08;2127509;82;21062;-79
2022/12/05 06:39:20;;;;;;;50.92;26.57;;;;;;;0.91;96.27;100513.25;2119007;83;21572;-81
2022/12/05 06:42:21;;;;;;;54.40;30.02;;;;;;;0.88;96.12;100502.05;2125494;83;20999;-80
2022/12/05 06:45:22;;;;;;;52.58;28.30;;;;;;;0.89;96.10;100503.72;2099566;84;21524;-82
2022/12/05 06:48:23;;;;;;;54.73;28.65;;;;;;;0.91;96.11;100494.48;2095354;84;21089;-84
2022/12/05 06:51:24;;;;;;;54.85;28.92;;;;;;;0.92;96.00;100504.47;2120349;83;21065;-83
2022/12/05 06:54:25;;;;;;;47.03;26.52;;;;;;;0.92;95.96;100492.71;2098695;83;21009;-80
2022/12/05 06:57:30;;;;;;;52.80;27.52;;;;;;;0.94;95.97;100503.91;2093008;84;21092;-80
2022/12/05 07:03:51;;;;;;;52.00;27.65;;;;;;;1.00;95.93;100515.28;2100618;84;21037;-81
2022/12/05 07:06:55;;;;;;;50.60;28.45;;;;;;;1.02;95.90;100512.12;2098146;84;21072;-80
2022/12/05 07:09:56;;;;;;;47.13;27.60;;;;;;;1.03;95.80;100503.33;2089971;84;21057;-80
2022/12/05 07:12:57;;;;;;;49.40;25.85;;;;;;;1.03;95.76;100505.94;2093236;84;21474;-80
2022/12/05 07:15:59;;;;;;;53.78;26.90;;;;;;;1.03;95.75;100514.62;2091677;84;21533;-83
2022/12/05 07:19:00;;;;;;;46.85;25.88;;;;;;;1.03;95.78;100508.55;2093520;84;21361;-83
2022/12/05 07:22:01;;;;;;;53.28;29.60;;;;;;;1.05;95.78;100502.30;2096143;84;21007;-80
2022/12/05 07:25:03;;;;;;;46.48;25.02;;;;;;;1.05;95.75;100498.37;2086527;84;21001;-79
2022/12/05 07:28:05;;;;;;;52.05;26.27;;;;;;;1.07;95.72;100503.50;2065959;84;21015;-81
2022/12/05 07:31:13;;;;;;;51.20;27.67;;;;;;;1.06;95.65;100495.30;2096999;84;21091;-80
2022/12/05 07:34:14;;;;;;;45.58;24.23;;;;;;;1.07;95.68;100489.12;2091480;84;21097;-80
2022/12/05 07:37:15;;;;;;;48.87;25.35;;;;;;;1.09;95.76;100492.01;2087959;84;21080;-80
2022/12/05 07:40:17;;;;;;;49.95;25.45;;;;;;;1.11;95.71;100504.52;2092471;83;21037;-80
2022/12/05 07:43:18;;;;;;;54.20;28.80;;;;;;;1.10;95.58;100505.47;2058299;84;20993;-80
2022/12/05 07:46:19;;;;;;;47.53;27.95;;;;;;;1.11;95.57;100511.53;2092861;84;21066;-79
2022/12/05 07:49:20;;;;;;;53.20;28.65;;;;;;;1.14;95.64;100498.73;2092792;84;21590;-79
2022/12/05 07:52:22;;;;;;;47.67;28.60;;;;;;;1.13;95.54;100501.83;2094928;84;21032;-79
2022/12/05 07:55:23;;;;;;;53.30;29.60;;;;;;;1.14;95.54;100507.89;2089904;84;21009;-80
2022/12/05 07:58:24;;;;;;;53.38;29.45;;;;;;;1.13;95.48;100501.83;2091103;84;21072;-80
2022/12/05 08:01:27;;;;;;;52.27;29.57;;;;;;;1.15;95.46;100514.31;2091032;84;21070;-81
2022/12/05 08:04:28;;;;;;;51.60;27.05;;;;;;;1.15;95.41;100502.55;2095835;84;21074;-79
2022/12/05 08:07:29;;;;;;;52.43;28.55;;;;;;;1.15;95.36;100516.92;2092193;84;22182;-79
2022/12/05 08:10:30;;;;;;;54.55;29.35;;;;;;;1.17;95.43;100505.91;2092671;84;21058;-80
2022/12/05 08:13:33;;;;;;;51.33;27.98;;;;;;;1.18;95.41;100515.89;2088019;84;21820;-81
2022/12/05 08:16:34;;;;;;;50.23;26.97;;;;;;;1.20;95.43;100516.17;2087921;84;21564;-83
2022/12/05 08:19:35;;;;;;;50.78;29.37;;;;;;;1.23;95.43;100524.29;2095375;84;21576;-79
2022/12/05 08:22:36;;;;;;;50.88;27.65;;;;;;;1.26;95.44;100530.16;2093866;84;21659;-80
2022/12/05 08:25:37;;;;;;;47.78;26.87;;;;;;;1.29;95.36;100531.27;2092527;84;21521;-79
2022/12/05 08:28:39;;;;;;;48.65;27.30;;;;;;;1.33;95.32;100524.92;2093915;84;20995;-79
2022/12/05 08:31:47;;;;;;;49.23;25.92;;;;;;;1.34;95.16;100526.59;2086707;84;20987;-79
2022/12/05 08:34:48;;;;;;;46.30;26.40;;;;;;;1.36;95.18;100526.98;2092679;84;21576;-79
2022/12/05 08:37:50;;;;;;;50.17;26.20;;;;;;;1.37;95.04;100528.64;2095134;84;21086;-80
2022/12/05 08:40:51;;;;;;;45.40;27.13;;;;;;;1.37;95.08;100523.41;2096594;84;21033;-79
2022/12/05 08:43:53;;;;;;;48.15;26.85;;;;;;;1.39;95.10;100535.94;2091421;84;21025;-79
2022/12/05 08:46:55;;;;;;;47.88;28.42;;;;;;;1.42;95.16;100542.27;2093646;84;21489;-79
2022/12/05 08:49:56;;;;;;;55.48;28.67;;;;;;;1.45;95.10;100537.68;2095322;83;21031;-79
2022/12/05 08:52:57;;;;;;;62.05;33.08;;;;;;;1.46;95.03;100541.13;2093234;84;21579;-79
2022/12/05 08:56:03;;;;;;;58.85;32.80;;;;;;;1.48;95.04;100536.64;2093306;83;21039;-79
2022/12/05 08:59:06;;;;;;;53.50;30.70;;;;;;;1.49;95.04;100544.41;2088337;84;21089;-79
2022/12/05 09:02:09;;;;;;;50.12;28.45;;;;;;;1.53;95.09;100541.12;2093409;84;21085;-79
2022/12/05 09:05:13;;;;;;;45.80;25.52;;;;;;;1.54;95.02;100544.09;2093736;84;21058;-79
2022/12/05 09:08:13;;;;;;;51.73;28.73;;;;;;;1.57;95.04;100549.13;2089651;84;21097;-79
2022/12/05 09:11:22;;;;;;;47.20;27.27;;;;;;;1.58;95.03;100554.74;2091501;85;21077;-79
2022/12/05 09:14:24;;;;;;;44.75;26.30;;;;;;;1.62;95.17;100551.45;2092124;85;21016;-81
2022/12/05 09:17:25;;;;;;;47.90;26.55;;;;;;;1.64;95.02;100550.42;2090598;85;21030;-80
2022/12/05 09:20:26;;;;;;;45.83;25.60;;;;;;;1.64;94.96;100551.73;2091933;85;21529;-79
2022/12/05 09:23:27;;;;;;;45.38;26.73;;;;;;;1.66;95.02;100544.63;2094527;85;21019;-80
2022/12/05 09:26:29;;;;;;;45.38;27.20;;;;;;;1.73;95.14;100543.75;2090216;85;21067;-79
2022/12/05 09:29:31;;;;;;;45.55;27.58;;;;;;;1.76;95.13;100538.31;2090949;85;21474;-79
2022/12/05 09:32:32;;;;;;;53.00;27.98;;;;;;;1.83;95.18;100534.82;2087965;85;21507;-79
2022/12/05 09:35:33;;;;;;;49.23;27.93;;;;;;;1.85;95.10;100536.40;2083994;85;21105;-79
2022/12/05 09:38:34;;;;;;;50.95;29.05;;;;;;;1.89;95.15;100537.06;2089526;85;21545;-79
2022/12/05 09:42:07;;;;;;;52.60;29.75;;;;;;;1.88;94.96;100532.74;2088698;85;21097;-79
2022/12/05 09:45:34;;;;;;;61.70;32.83;;;;;;;1.85;94.79;100528.55;2091397;85;20999;-79
2022/12/05 09:48:43;;;;;;;72.27;39.80;;;;;;;1.86;94.90;100526.77;2088807;85;20991;-80
2022/12/05 09:51:46;;;;;;;65.80;35.68;;;;;;;1.85;94.99;100522.01;2091250;85;21053;-80
2022/12/05 09:54:50;;;;;;;52.53;28.52;;;;;;;1.84;94.98;100514.27;2090883;84;21044;-80
2022/12/05 09:57:56;;;;;;;48.42;28.60;;;;;;;1.86;95.08;100515.85;2087492;85;21081;-81
2022/12/05 10:01:18;;;;;;;46.95;27.90;;;;;;;1.89;95.09;100506.97;2087579;85;20979;-83
2022/12/05 10:04:56;;;;;;;42.95;26.12;;;;;;;1.81;95.00;100499.61;2091167;85;21529;-80
2022/12/05 10:08:24;;;;;;;51.98;29.42;;;;;;;1.87;95.08;100506.22;2101255;83;21470;-79
2022/12/05 10:11:56;;;;;;;52.58;29.72;;;;;;;1.90;95.09;100504.70;2124346;83;21045;-79
2022/12/05 10:15:17;;;;;;;51.23;29.87;;;;;;;1.91;95.14;100498.52;2120712;83;21619;-79
2022/12/05 10:18:33;;;;;;;51.23;30.17;;;;;;;1.93;95.21;100505.80;2125360;83;21018;-79
2022/12/05 10:21:48;;;;;;;50.05;29.48;;;;;;;1.95;95.19;100501.31;2125695;82;21945;-79
2022/12/05 10:24:55;;;;;;;49.65;28.70;;;;;;;1.96;95.07;100497.27;2123228;83;21049;-83
2022/12/05 10:28:07;;;;;;;52.30;29.37;;;;;;;1.97;95.04;100497.66;2125207;83;21075;-80
2022/12/05 10:31:13;;;;;;;50.45;28.35;;;;;;;1.98;94.94;100501.11;2124823;83;21089;-81
2022/12/05 10:34:22;;;;;;;45.00;26.50;;;;;;;1.98;94.92;100495.40;2132961;83;21034;-81
2022/12/05 10:37:24;;;;;;;49.45;29.18;;;;;;;1.98;94.83;100491.47;2124065;83;21118;-80
2022/12/05 10:40:30;;;;;;;45.60;27.60;;;;;;;2.03;94.95;100489.87;2132774;83;21053;-80
2022/12/05 10:43:34;;;;;;;49.42;28.23;;;;;;;2.08;94.97;100485.14;2123843;83;21086;-84
2022/12/05 10:46:35;;;;;;;45.60;27.20;;;;;;;2.12;94.90;100484.01;2130678;83;21033;-80
2022/12/05 10:49:37;;;;;;;45.03;25.50;;;;;;;2.17;94.85;100488.47;2127513;83;21101;-81
2022/12/05 10:52:38;;;;;;;47.35;27.07;;;;;;;2.20;94.71;100484.33;2123300;83;21014;-80
2022/12/05 10:55:43;;;;;;;42.35;25.60;;;;;;;2.26;94.69;100479.62;2127616;83;21086;-81
2022/12/05 10:58:57;;;;;;;40.50;25.20;;;;;;;2.31;94.64;100480.13;2126465;83;21008;-80
2022/12/05 11:01:58;;;;;;;43.90;25.52;;;;;;;2.39;94.66;100480.44;2126197;83;21580;-81
2022/12/05 11:04:59;;;;;;;47.80;26.70;;;;;;;2.40;94.14;100482.13;2124938;83;21558;-81
2022/12/05 11:08:00;;;;;;;45.20;26.33;;;;;;;2.43;94.07;100485.37;2104586;83;21121;-80
2022/12/05 11:11:09;;;;;;;48.08;26.27;;;;;;;2.44;93.71;100483.10;2124243;83;21002;-80
2022/12/05 11:14:26;;;;;;;43.98;25.72;;;;;;;2.45;93.70;100476.11;2124468;83;21089;-80
2022/12/05 11:17:35;;;;;;;48.13;25.55;;;;;;;2.51;93.88;100474.37;2124363;83;21178;-81
2022/12/05 11:20:38;;;;;;;42.03;25.72;;;;;;;2.56;93.72;100472.72;2127694;83;21703;-81
2022/12/05 11:23:40;;;;;;;48.05;26.77;;;;;;;2.61;93.79;100476.70;2130174;82;21602;-80
2022/12/05 11:26:41;;;;;;;45.55;26.15;;;;;;;2.66;93.46;100473.77;2129996;82;21096;-80
2022/12/05 11:29:54;;;;;;;43.45;24.95;;;;;;;2.70;93.39;100471.28;2126728;83;21033;-80
2022/12/05 11:33:23;;;;;;;50.25;28.65;;;;;;;2.76;93.36;100470.02;2118100;83;21034;-80
2022/12/05 11:36:38;;;;;;;46.45;25.17;;;;;;;2.81;93.24;100469.22;2120148;82;21093;-80
2022/12/05 11:39:43;;;;;;;49.70;28.15;;;;;;;2.83;92.96;100459.00;2127200;82;21099;-80
2022/12/05 11:43:35;;;;;;;47.10;26.82;;;;;;;2.84;92.75;100467.70;2123193;83;21582;-80
2022/12/05 11:47:13;;;;;;;47.15;27.55;;;;;;;2.85;92.74;100466.29;2090062;83;21584;-82
2022/12/05 11:50:26;;;;;;;52.35;27.85;;;;;;;2.88;92.71;100458.69;2126965;83;22290;-80
2022/12/05 11:54:08;;;;;;;50.58;26.35;;;;;;;2.89;92.54;100462.48;2102379;82;21084;-81
2022/12/05 11:58:00;;;;;;;51.23;27.42;;;;;;;2.91;92.41;100459.77;2115340;83;21061;-80
2022/12/05 12:01:28;;;;;;;47.13;27.00;;;;;;;2.88;92.15;100450.34;2127113;82;21013;-81
2022/12/05 12:04:47;;;;;;;52.05;27.98;;;;;;;2.89;92.14;100452.48;2123111;83;21560;-80
2022/12/05 12:08:24;;;;;;;48.83;28.83;;;;;;;2.89;92.17;100455.94;2125134;82;21076;-81
2022/12/05 12:12:14;;;;;;;53.35;29.30;;;;;;;2.92;92.21;100454.88;2122173;83;21027;-81
2022/12/05 12:15:36;;;;;;;50.65;28.40;;;;;;;2.90;92.06;100456.32;2121553;83;21552;-80
2022/12/05 12:18:45;;;;;;;49.03;26.48;;;;;;;2.94;92.06;100458.24;2098120;84;21025;-81
2022/12/05 12:22:07;;;;;;;53.00;28.60;;;;;;;2.99;92.11;100458.76;2103322;83;21030;-80
2022/12/05 12:25:35;;;;;;;48.63;28.20;;;;;;;2.99;92.00;100450.89;2121445;82;21139;-80
2022/12/05 12:29:09;;;;;;;49.03;28.85;;;;;;;2.98;91.88;100443.13;2125542;82;21058;-81
2022/12/05 12:32:35;;;;;;;48.23;28.35;;;;;;;3.00;91.92;100447.79;2126614;83;21119;-80
2022/12/05 12:36:08;;;;;;;50.00;29.07;;;;;;;3.00;91.74;100447.79;2123373;83;21086;-80
2022/12/05 12:39:33;;;;;;;48.92;28.57;;;;;;;3.00;91.77;100442.07;2119640;83;21650;-80
2022/12/05 12:43:05;;;;;;;53.33;27.58;;;;;;;3.04;91.76;100440.05;2125837;83;21056;-80
2022/12/05 12:46:34;;;;;;;53.33;28.55;;;;;;;3.07;91.91;100448.56;2099998;84;21081;-80
2022/12/05 12:50:03;;;;;;;50.15;28.12;;;;;;;3.08;91.74;100445.45;2096740;83;21559;-84
2022/12/05 12:53:19;;;;;;;52.10;28.75;;;;;;;3.09;91.79;100447.95;2086239;84;21652;-80
2022/12/05 12:56:38;;;;;;;44.42;25.57;;;;;;;3.11;91.64;100442.13;2114479;84;21048;-80
2022/12/05 12:59:50;;;;;;;51.45;29.00;;;;;;;3.10;91.43;100450.13;2113930;83;21537;-79
2022/12/05 13:03:09;;;;;;;50.25;26.97;;;;;;;3.06;91.29;100446.86;2076305;84;21065;-78
2022/12/05 13:06:24;;;;;;;46.95;27.35;;;;;;;3.07;91.44;100445.94;2095909;84;20990;-79
2022/12/05 13:09:49;;;;;;;49.83;29.67;;;;;;;3.10;91.45;100440.95;2091880;84;21035;-79
2022/12/05 13:12:52;;;;;;;48.78;27.90;;;;;;;3.09;91.29;100448.44;2087349;85;21009;-79
2022/12/05 13:15:57;;;;;;;48.40;28.75;;;;;;;3.06;91.26;100446.86;2092547;85;21083;-79
2022/12/05 13:19:00;;;;;;;51.98;27.55;;;;;;;3.06;91.27;100446.86;2085909;85;22592;-80
2022/12/05 13:22:01;;;;;;;51.75;27.87;;;;;;;3.07;91.33;100451.18;2080901;85;21070;-79
2022/12/05 13:25:03;;;;;;;54.18;29.05;;;;;;;3.10;91.32;100452.75;2112291;83;21474;-80
2022/12/05 13:28:09;;;;;;;50.90;28.92;;;;;;;3.11;91.27;100455.24;2085015;83;21074;-79
2022/12/05 13:31:15;;;;;;;49.35;27.48;;;;;;;3.10;91.28;100450.96;2108762;83;21070;-80
2022/12/05 13:34:38;;;;;;;49.70;27.50;;;;;;;3.12;91.26;100457.39;2116231;83;21043;-79
2022/12/05 13:44:37;;;;;;;;;;;;;;;3.11;91.19;100452.62;2089635;83;21038;-79
2022/12/05 13:47:50;;;;;;;46.95;26.75;;;;;;;3.10;91.22;100452.27;2110685;83;20390;-80
2022/12/05 13:51:03;;;;;;;51.70;27.55;;;;;;;3.10;91.26;100450.13;2110873;83;21053;-79
2022/12/05 13:54:26;;;;;;;47.17;26.97;;;;;;;3.09;91.24;100449.74;2110099;83;21015;-78
2022/12/05 13:57:43;;;;;;;50.28;27.02;;;;;;;3.10;91.32;100455.38;2113762;83;21076;-79
2022/12/05 14:00:44;;;;;;;52.90;27.98;;;;;;;3.12;91.33;100460.84;2108895;83;21047;-79
2022/12/05 14:03:58;;;;;;;46.73;27.20;;;;;;;3.16;91.34;100458.86;2112809;83;21073;-78
2022/12/05 14:06:59;;;;;;;54.33;28.12;;;;;;;3.19;91.30;100453.39;2121982;83;20982;-79
2022/12/05 14:10:00;;;;;;;47.75;27.62;;;;;;;3.20;91.24;100461.61;2111530;83;21071;-80
2022/12/05 14:13:15;;;;;;;47.90;27.25;;;;;;;3.24;91.22;100464.84;2113130;83;20991;-81
2022/12/05 14:16:33;;;;;;;48.85;28.77;;;;;;;3.28;91.23;100464.99;2107008;83;20964;-79
2022/12/05 14:19:54;;;;;;;50.60;26.52;;;;;;;3.29;91.17;100460.93;2099675;83;20996;-79
2022/12/05 14:23:38;;;;;;;48.02;25.85;;;;;;;3.29;90.98;100463.55;2081538;83;21101;-79
2022/12/05 14:26:50;;;;;;;49.58;27.95;;;;;;;3.28;90.97;100455.81;2108360;83;22298;-79
2022/12/05 14:30:03;;;;;;;50.38;28.32;;;;;;;3.26;91.03;100442.80;2110386;83;21105;-78
2022/12/05 14:33:10;;;;;;;56.45;28.57;;;;;;;3.26;90.92;100445.90;2110607;83;21063;-79
2022/12/05 14:36:18;;;;;;;54.27;29.37;;;;;;;3.23;90.93;100443.02;2112458;83;21572;-79
2022/12/05 14:39:39;;;;;;;48.60;27.40;;;;;;;3.25;91.03;100449.00;2113202;83;21112;-78
2022/12/05 14:43:06;;;;;;;51.73;29.18;;;;;;;3.22;90.93;100441.36;2113531;83;21038;-78